Double Eagle — WDI3599 — position and weather

sailwx.info

Track history (hours):
 
Tides and Currents Weather Stations Pressure Air Temp Water Temp Dewpoint Dewpoint Depression Visibility Wind Speed Wind Dir Waves Ship Positions

Double Eagle

Owner: Double Eagle LLc, Annapolis, MD. More information available from US FCC via Universal Licensing System and Coast Guard Vessel Documentation Center.

Last reported at 2018-Jun-08 14:39 UTC. Time now 2018-Jun-23 10:16 UTC.
Position N 41°13' W 072°22'.
Warning: this ship's position is 14 days out of date.

Length 34 m.

Type: Pleasure craft. MMSI: 368900000.

Date/timePositionNaut miles runAvg speedWind from/ knotsBaromVisibWave heightAir tempDewpointWater temp
2018-Jun-08 14:39N 41°13' W 072°22'920.3
2018-Jun-08 14:13N 41°11' W 072°34'7017.6
2018-Jun-08 10:14N 40°43' W 073°58'2 8.8
2018-Jun-08 09:59N 40°43' W 074°01'1 0.0
2018-Jun-06 18:24N 40°44' W 074°01'2 1.7
2018-Jun-06 16:59N 40°43' W 073°58'  
2018-Jun-03 22:23N 40°44' W 074°01'2 5.6
2018-Jun-03 22:00N 40°42' W 073°59'2 0.3
2018-Jun-03 16:03N 40°43' W 074°01'012.3
2018-Jun-03 16:01N 40°43' W 074°02'1 1.7
2018-Jun-03 15:29N 40°43' W 074°03'0 0.0
2018-Jun-03 14:58N 40°43' W 074°03'0 0.0
2018-Jun-03 14:30N 40°43' W 074°03'0 0.0
2018-Jun-03 14:00N 40°43' W 074°03'0 0.0
2018-Jun-03 13:30N 40°43' W 074°03'0 0.0
2018-Jun-03 12:56N 40°43' W 074°03'0 0.0
2018-Jun-03 12:29N 40°43' W 074°03'0 0.0
2018-Jun-03 11:59N 40°43' W 074°03'0 0.0
2018-Jun-03 11:29N 40°43' W 074°03'0 0.0
2018-Jun-03 10:59N 40°43' W 074°03'0 0.0
2018-Jun-03 10:29N 40°43' W 074°03'0 0.0
2018-Jun-03 09:55N 40°43' W 074°03'0 0.0
2018-Jun-03 09:25N 40°43' W 074°03'0 0.0
2018-Jun-03 09:00N 40°43' W 074°03'0 0.0
2018-Jun-03 08:30N 40°43' W 074°03'0 0.0
2018-Jun-03 08:00N 40°43' W 074°03'0 0.0
2018-Jun-03 07:30N 40°43' W 074°03'0 0.0
2018-Jun-03 07:00N 40°43' W 074°03'0 0.0
2018-Jun-03 06:30N 40°43' W 074°03'0 0.0
2018-Jun-03 05:58N 40°43' W 074°03'0 0.0
2018-Jun-03 05:28N 40°43' W 074°03'0 0.0
2018-Jun-03 04:58N 40°43' W 074°03'0 0.0
2018-Jun-03 04:29N 40°43' W 074°03'0 0.0
2018-Jun-03 03:55N 40°43' W 074°03'0 0.0
2018-Jun-03 03:29N 40°43' W 074°03'0 0.0
2018-Jun-03 02:59N 40°43' W 074°03'0 0.0
2018-Jun-03 02:29N 40°43' W 074°03'0 0.0
2018-Jun-03 01:59N 40°43' W 074°03'0 0.0
2018-Jun-03 01:29N 40°43' W 074°03'0 0.0
2018-Jun-03 00:59N 40°43' W 074°03'0 0.0
2018-Jun-03 00:29N 40°43' W 074°03'0 0.0
2018-Jun-02 23:59N 40°43' W 074°03'0 0.0
2018-Jun-02 23:29N 40°43' W 074°03'0 0.0
2018-Jun-02 22:59N 40°43' W 074°03'0 0.0
2018-Jun-02 22:29N 40°43' W 074°03'0 0.0
2018-Jun-02 21:58N 40°43' W 074°03'0 0.0
2018-Jun-02 21:28N 40°43' W 074°03'0 0.0
2018-Jun-02 20:58N 40°43' W 074°03'0 0.0
2018-Jun-02 20:28N 40°43' W 074°03'0 0.0
2018-Jun-02 19:59N 40°43' W 074°03'0 0.0
2018-Jun-02 19:29N 40°43' W 074°03'0 0.0
2018-Jun-02 19:00N 40°43' W 074°03'0 0.0
2018-Jun-02 18:30N 40°43' W 074°03'0 0.0
2018-Jun-02 18:00N 40°43' W 074°03'0 0.0
2018-Jun-02 17:30N 40°43' W 074°03'0 0.0
2018-Jun-02 17:00N 40°43' W 074°03'0 0.0
2018-Jun-02 16:30N 40°43' W 074°03'3 6.2
2018-Jun-02 16:00N 40°40' W 074°03'5117.5
2018-Jun-02 13:05N 39°49' W 074°02'215.2
2018-Jun-02 12:57N 39°47' W 074°02'715.5
2018-Jun-02 12:30N 39°40' W 074°06'63 1.5
2018-May-31 18:03N 39°16' W 075°21'118.5
2018-May-31 18:00N 39°17' W 075°22'917.9
2018-May-31 17:30N 39°24' W 075°30'815.3
2018-May-31 17:00N 39°31' W 075°33'611.8
2018-May-31 16:30N 39°33' W 075°40'816.1
2018-May-31 16:00N 39°32' W 075°51'3716.9
2018-May-31 13:50N 39°13' W 076°31'412.2
2018-May-31 13:29N 39°16' W 076°35'  
Track history (hours):
 
Tides and Currents Weather Stations Pressure Air Temp Water Temp Dewpoint Dewpoint Depression Visibility Wind Speed Wind Dir Waves Ship Positions

Double Eagle

Owner: Double Eagle LLc, Annapolis, MD. More information available from US FCC via Universal Licensing System and Coast Guard Vessel Documentation Center.

Last reported at 2018-Jun-08 14:39 UTC. Time now 2018-Jun-23 10:16 UTC.
Position N 41°13' W 072°22'.
Warning: this ship's position is 14 days out of date.

Length 34 m.

Type: Pleasure craft. MMSI: 368900000.

Date/timePositionNaut miles runAvg speedWind from/ knotsBaromVisibWave heightAir tempDewpointWater temp
2018-Jun-08 14:39N 41°13' W 072°22'920.3
2018-Jun-08 14:13N 41°11' W 072°34'7017.6
2018-Jun-08 10:14N 40°43' W 073°58'2 8.8
2018-Jun-08 09:59N 40°43' W 074°01'1 0.0
2018-Jun-06 18:24N 40°44' W 074°01'2 1.7
2018-Jun-06 16:59N 40°43' W 073°58'  
2018-Jun-03 22:23N 40°44' W 074°01'2 5.6
2018-Jun-03 22:00N 40°42' W 073°59'2 0.3
2018-Jun-03 16:03N 40°43' W 074°01'012.3
2018-Jun-03 16:01N 40°43' W 074°02'1 1.7
2018-Jun-03 15:29N 40°43' W 074°03'0 0.0
2018-Jun-03 14:58N 40°43' W 074°03'0 0.0
2018-Jun-03 14:30N 40°43' W 074°03'0 0.0
2018-Jun-03 14:00N 40°43' W 074°03'0 0.0
2018-Jun-03 13:30N 40°43' W 074°03'0 0.0
2018-Jun-03 12:56N 40°43' W 074°03'0 0.0
2018-Jun-03 12:29N 40°43' W 074°03'0 0.0
2018-Jun-03 11:59N 40°43' W 074°03'0 0.0
2018-Jun-03 11:29N 40°43' W 074°03'0 0.0
2018-Jun-03 10:59N 40°43' W 074°03'0 0.0
2018-Jun-03 10:29N 40°43' W 074°03'0 0.0
2018-Jun-03 09:55N 40°43' W 074°03'0 0.0
2018-Jun-03 09:25N 40°43' W 074°03'0 0.0
2018-Jun-03 09:00N 40°43' W 074°03'0 0.0
2018-Jun-03 08:30N 40°43' W 074°03'0 0.0
2018-Jun-03 08:00N 40°43' W 074°03'0 0.0
2018-Jun-03 07:30N 40°43' W 074°03'0 0.0
2018-Jun-03 07:00N 40°43' W 074°03'0 0.0
2018-Jun-03 06:30N 40°43' W 074°03'0 0.0
2018-Jun-03 05:58N 40°43' W 074°03'0 0.0
2018-Jun-03 05:28N 40°43' W 074°03'0 0.0
2018-Jun-03 04:58N 40°43' W 074°03'0 0.0
2018-Jun-03 04:29N 40°43' W 074°03'0 0.0
2018-Jun-03 03:55N 40°43' W 074°03'0 0.0
2018-Jun-03 03:29N 40°43' W 074°03'0 0.0
2018-Jun-03 02:59N 40°43' W 074°03'0 0.0
2018-Jun-03 02:29N 40°43' W 074°03'0 0.0
2018-Jun-03 01:59N 40°43' W 074°03'0 0.0
2018-Jun-03 01:29N 40°43' W 074°03'0 0.0
2018-Jun-03 00:59N 40°43' W 074°03'0 0.0
2018-Jun-03 00:29N 40°43' W 074°03'0 0.0
2018-Jun-02 23:59N 40°43' W 074°03'0 0.0
2018-Jun-02 23:29N 40°43' W 074°03'0 0.0
2018-Jun-02 22:59N 40°43' W 074°03'0 0.0
2018-Jun-02 22:29N 40°43' W 074°03'0 0.0
2018-Jun-02 21:58N 40°43' W 074°03'0 0.0
2018-Jun-02 21:28N 40°43' W 074°03'0 0.0
2018-Jun-02 20:58N 40°43' W 074°03'0 0.0
2018-Jun-02 20:28N 40°43' W 074°03'0 0.0
2018-Jun-02 19:59N 40°43' W 074°03'0 0.0
2018-Jun-02 19:29N 40°43' W 074°03'0 0.0
2018-Jun-02 19:00N 40°43' W 074°03'0 0.0
2018-Jun-02 18:30N 40°43' W 074°03'0 0.0
2018-Jun-02 18:00N 40°43' W 074°03'0 0.0
2018-Jun-02 17:30N 40°43' W 074°03'0 0.0
2018-Jun-02 17:00N 40°43' W 074°03'0 0.0
2018-Jun-02 16:30N 40°43' W 074°03'3 6.2
2018-Jun-02 16:00N 40°40' W 074°03'5117.5
2018-Jun-02 13:05N 39°49' W 074°02'215.2
2018-Jun-02 12:57N 39°47' W 074°02'715.5
2018-Jun-02 12:30N 39°40' W 074°06'63 1.5
2018-May-31 18:03N 39°16' W 075°21'118.5
2018-May-31 18:00N 39°17' W 075°22'917.9
2018-May-31 17:30N 39°24' W 075°30'815.3
2018-May-31 17:00N 39°31' W 075°33'611.8
2018-May-31 16:30N 39°33' W 075°40'816.1
2018-May-31 16:00N 39°32' W 075°51'3716.9
2018-May-31 13:50N 39°13' W 076°31'412.2
2018-May-31 13:29N 39°16' W 076°35'  

Dump ship's entire track history